Terminal Aerodrome Forecast
Issued by NWS

Home | Current Version | Previous Version | Graphics & Text | Print | Product List | Glossary On
Versions: 1 2 3 4 5 6 7 8 9 10 11 12
000
FTUS43 KIWX 301100
TAFSBN
TAF
KSBN 301120Z 3012/0112 36012KT P6SM OVC015
     FM301700 36010KT P6SM BKN020
     FM010000 05003KT P6SM SCT020
     FM010900 10003KT 5SM BR BKN020=

USA.gov is the U.S. government's official web portal to all federal, state and local government web resources and services.